sensor_id;sensor_type;location;lat;lon;timestamp;P1;durP1;ratioP1;P2;durP2;ratioP2
39102;SDS011;24847;48.218;16.414;2024-01-10T00:04:28;45.60;;;23.08;;
39102;SDS011;24847;48.218;16.414;2024-01-10T00:09:30;40.35;;;21.75;;
39102;SDS011;24847;48.218;16.414;2024-01-10T00:14:32;39.03;;;20.90;;
39102;SDS011;24847;48.218;16.414;2024-01-10T00:19:36;37.00;;;21.20;;
39102;SDS011;24847;48.218;16.414;2024-01-10T00:24:38;43.03;;;23.05;;
39102;SDS011;24847;48.218;16.414;2024-01-10T00:29:40;43.22;;;21.20;;
39102;SDS011;24847;48.218;16.414;2024-01-10T00:34:44;39.97;;;22.70;;
39102;SDS011;24847;48.218;16.414;2024-01-10T00:39:46;43.58;;;23.20;;
39102;SDS011;24847;48.218;16.414;2024-01-10T00:44:48;39.13;;;21.55;;
39102;SDS011;24847;48.218;16.414;2024-01-10T00:49:52;39.70;;;21.52;;
39102;SDS011;24847;48.218;16.414;2024-01-10T00:54:55;37.05;;;19.98;;
39102;SDS011;24847;48.218;16.414;2024-01-10T00:59:59;37.42;;;20.83;;
39102;SDS011;24847;48.218;16.414;2024-01-10T01:05:06;40.45;;;23.30;;
39102;SDS011;24847;48.218;16.414;2024-01-10T01:10:11;44.80;;;22.58;;
39102;SDS011;24847;48.218;16.414;2024-01-10T01:15:16;40.80;;;22.40;;
39102;SDS011;24847;48.218;16.414;2024-01-10T01:20:22;42.53;;;22.45;;
39102;SDS011;24847;48.218;16.414;2024-01-10T01:25:26;43.55;;;22.70;;
39102;SDS011;24847;48.218;16.414;2024-01-10T01:30:28;42.78;;;23.15;;
39102;SDS011;24847;48.218;16.414;2024-01-10T01:35:32;42.85;;;23.58;;
39102;SDS011;24847;48.218;16.414;2024-01-10T01:40:36;46.67;;;23.45;;
39102;SDS011;24847;48.218;16.414;2024-01-10T01:45:41;43.58;;;22.73;;
39102;SDS011;24847;48.218;16.414;2024-01-10T01:50:46;49.17;;;24.60;;
39102;SDS011;24847;48.218;16.414;2024-01-10T02:02:06;47.03;;;23.90;;
39102;SDS011;24847;48.218;16.414;2024-01-10T02:07:10;43.97;;;23.50;;
39102;SDS011;24847;48.218;16.414;2024-01-10T02:12:12;46.97;;;24.08;;
39102;SDS011;24847;48.218;16.414;2024-01-10T02:17:15;44.97;;;23.33;;
39102;SDS011;24847;48.218;16.414;2024-01-10T02:22:19;45.70;;;25.15;;
39102;SDS011;24847;48.218;16.414;2024-01-10T02:27:22;47.78;;;23.65;;
39102;SDS011;24847;48.218;16.414;2024-01-10T02:32:25;47.58;;;24.13;;
39102;SDS011;24847;48.218;16.414;2024-01-10T02:37:27;50.42;;;26.30;;
39102;SDS011;24847;48.218;16.414;2024-01-10T02:42:31;50.78;;;26.38;;
39102;SDS011;24847;48.218;16.414;2024-01-10T02:47:36;48.33;;;25.50;;
39102;SDS011;24847;48.218;16.414;2024-01-10T02:52:39;47.50;;;25.33;;
39102;SDS011;24847;48.218;16.414;2024-01-10T02:57:42;46.80;;;24.20;;
39102;SDS011;24847;48.218;16.414;2024-01-10T03:02:45;43.67;;;23.15;;
39102;SDS011;24847;48.218;16.414;2024-01-10T03:07:47;48.35;;;26.02;;
39102;SDS011;24847;48.218;16.414;2024-01-10T03:12:51;47.00;;;25.05;;
39102;SDS011;24847;48.218;16.414;2024-01-10T03:17:53;48.67;;;25.40;;
39102;SDS011;24847;48.218;16.414;2024-01-10T03:22:55;48.65;;;25.52;;
39102;SDS011;24847;48.218;16.414;2024-01-10T03:27:58;46.17;;;24.38;;
39102;SDS011;24847;48.218;16.414;2024-01-10T03:33:00;46.40;;;25.10;;
39102;SDS011;24847;48.218;16.414;2024-01-10T03:38:03;47.40;;;25.30;;
39102;SDS011;24847;48.218;16.414;2024-01-10T03:43:06;47.33;;;24.92;;
39102;SDS011;24847;48.218;16.414;2024-01-10T03:48:10;49.30;;;24.35;;
39102;SDS011;24847;48.218;16.414;2024-01-10T03:53:12;49.75;;;24.80;;
39102;SDS011;24847;48.218;16.414;2024-01-10T03:58:15;54.55;;;27.55;;
39102;SDS011;24847;48.218;16.414;2024-01-10T04:03:18;52.10;;;27.95;;
39102;SDS011;24847;48.218;16.414;2024-01-10T04:08:20;49.35;;;27.27;;
39102;SDS011;24847;48.218;16.414;2024-01-10T04:13:23;53.50;;;28.35;;
39102;SDS011;24847;48.218;16.414;2024-01-10T04:18:25;50.22;;;26.73;;
39102;SDS011;24847;48.218;16.414;2024-01-10T04:23:28;50.63;;;27.35;;
39102;SDS011;24847;48.218;16.414;2024-01-10T04:28:35;56.25;;;28.48;;
39102;SDS011;24847;48.218;16.414;2024-01-10T04:33:40;50.75;;;26.55;;
39102;SDS011;24847;48.218;16.414;2024-01-10T04:38:42;51.45;;;27.13;;
39102;SDS011;24847;48.218;16.414;2024-01-10T04:43:46;53.45;;;27.85;;
39102;SDS011;24847;48.218;16.414;2024-01-10T04:48:48;50.72;;;26.42;;
39102;SDS011;24847;48.218;16.414;2024-01-10T04:53:51;48.70;;;25.90;;
39102;SDS011;24847;48.218;16.414;2024-01-10T04:58:54;49.65;;;26.02;;
39102;SDS011;24847;48.218;16.414;2024-01-10T05:03:56;51.25;;;26.40;;
39102;SDS011;24847;48.218;16.414;2024-01-10T05:08:58;48.55;;;25.88;;
39102;SDS011;24847;48.218;16.414;2024-01-10T05:14:02;51.38;;;27.15;;
39102;SDS011;24847;48.218;16.414;2024-01-10T05:19:04;48.75;;;25.02;;
39102;SDS011;24847;48.218;16.414;2024-01-10T05:24:06;51.95;;;27.27;;
39102;SDS011;24847;48.218;16.414;2024-01-10T05:29:09;51.35;;;25.83;;
39102;SDS011;24847;48.218;16.414;2024-01-10T05:34:12;52.03;;;27.60;;
39102;SDS011;24847;48.218;16.414;2024-01-10T05:39:14;55.15;;;28.17;;
39102;SDS011;24847;48.218;16.414;2024-01-10T05:44:18;54.35;;;28.05;;
39102;SDS011;24847;48.218;16.414;2024-01-10T05:49:20;53.25;;;27.60;;
39102;SDS011;24847;48.218;16.414;2024-01-10T05:54:23;65.40;;;30.23;;
39102;SDS011;24847;48.218;16.414;2024-01-10T05:59:26;54.80;;;28.13;;
39102;SDS011;24847;48.218;16.414;2024-01-10T06:04:28;56.05;;;28.92;;
39102;SDS011;24847;48.218;16.414;2024-01-10T06:09:31;52.00;;;28.90;;
39102;SDS011;24847;48.218;16.414;2024-01-10T06:14:35;54.00;;;27.45;;
39102;SDS011;24847;48.218;16.414;2024-01-10T06:19:37;57.95;;;28.65;;
39102;SDS011;24847;48.218;16.414;2024-01-10T06:24:39;54.10;;;28.38;;
39102;SDS011;24847;48.218;16.414;2024-01-10T06:29:43;58.28;;;30.00;;
39102;SDS011;24847;48.218;16.414;2024-01-10T06:34:45;55.28;;;29.15;;
39102;SDS011;24847;48.218;16.414;2024-01-10T06:39:48;54.47;;;28.35;;
39102;SDS011;24847;48.218;16.414;2024-01-10T06:44:51;57.15;;;28.85;;
39102;SDS011;24847;48.218;16.414;2024-01-10T06:49:54;57.10;;;28.50;;
39102;SDS011;24847;48.218;16.414;2024-01-10T06:54:56;53.35;;;28.48;;
39102;SDS011;24847;48.218;16.414;2024-01-10T07:00:00;54.65;;;28.83;;
39102;SDS011;24847;48.218;16.414;2024-01-10T07:05:06;50.10;;;28.00;;
39102;SDS011;24847;48.218;16.414;2024-01-10T07:10:09;58.67;;;27.73;;
39102;SDS011;24847;48.218;16.414;2024-01-10T07:15:13;60.40;;;28.98;;
39102;SDS011;24847;48.218;16.414;2024-01-10T07:20:15;58.45;;;30.38;;
39102;SDS011;24847;48.218;16.414;2024-01-10T07:25:17;55.58;;;29.67;;
39102;SDS011;24847;48.218;16.414;2024-01-10T07:30:23;57.20;;;30.52;;
39102;SDS011;24847;48.218;16.414;2024-01-10T07:35:25;58.47;;;29.40;;
39102;SDS011;24847;48.218;16.414;2024-01-10T07:40:29;52.85;;;28.45;;
39102;SDS011;24847;48.218;16.414;2024-01-10T07:45:33;50.35;;;26.75;;
39102;SDS011;24847;48.218;16.414;2024-01-10T07:50:35;47.03;;;24.58;;
39102;SDS011;24847;48.218;16.414;2024-01-10T07:55:37;49.72;;;25.70;;
39102;SDS011;24847;48.218;16.414;2024-01-10T08:00:41;50.55;;;26.17;;
39102;SDS011;24847;48.218;16.414;2024-01-10T08:05:43;47.45;;;24.42;;
39102;SDS011;24847;48.218;16.414;2024-01-10T08:10:46;48.33;;;24.55;;
39102;SDS011;24847;48.218;16.414;2024-01-10T08:15:50;45.80;;;25.40;;
39102;SDS011;24847;48.218;16.414;2024-01-10T08:20:52;45.63;;;24.30;;
39102;SDS011;24847;48.218;16.414;2024-01-10T08:25:55;46.55;;;24.48;;
39102;SDS011;24847;48.218;16.414;2024-01-10T08:30:58;46.40;;;24.80;;
39102;SDS011;24847;48.218;16.414;2024-01-10T08:36:01;49.88;;;27.08;;
39102;SDS011;24847;48.218;16.414;2024-01-10T08:41:03;45.53;;;24.98;;
39102;SDS011;24847;48.218;16.414;2024-01-10T08:46:10;47.55;;;25.15;;
39102;SDS011;24847;48.218;16.414;2024-01-10T08:51:12;48.80;;;24.85;;
39102;SDS011;24847;48.218;16.414;2024-01-10T08:56:16;49.97;;;25.95;;
39102;SDS011;24847;48.218;16.414;2024-01-10T09:01:21;48.60;;;24.63;;
39102;SDS011;24847;48.218;16.414;2024-01-10T09:06:23;45.30;;;24.67;;
39102;SDS011;24847;48.218;16.414;2024-01-10T09:11:26;49.58;;;25.23;;
39102;SDS011;24847;48.218;16.414;2024-01-10T09:16:29;48.30;;;25.80;;
39102;SDS011;24847;48.218;16.414;2024-01-10T09:21:32;45.95;;;24.40;;
39102;SDS011;24847;48.218;16.414;2024-01-10T09:26:34;50.45;;;25.30;;
39102;SDS011;24847;48.218;16.414;2024-01-10T09:31:38;45.95;;;24.48;;
39102;SDS011;24847;48.218;16.414;2024-01-10T09:36:40;48.92;;;25.67;;
39102;SDS011;24847;48.218;16.414;2024-01-10T09:41:45;43.22;;;23.65;;
39102;SDS011;24847;48.218;16.414;2024-01-10T09:46:52;43.05;;;24.95;;
39102;SDS011;24847;48.218;16.414;2024-01-10T09:51:57;43.78;;;24.33;;
39102;SDS011;24847;48.218;16.414;2024-01-10T09:57:00;44.65;;;24.30;;
39102;SDS011;24847;48.218;16.414;2024-01-10T10:02:05;46.47;;;25.65;;
39102;SDS011;24847;48.218;16.414;2024-01-10T10:07:08;41.65;;;23.80;;
39102;SDS011;24847;48.218;16.414;2024-01-10T10:12:10;41.33;;;22.73;;
39102;SDS011;24847;48.218;16.414;2024-01-10T10:17:17;39.55;;;22.48;;
39102;SDS011;24847;48.218;16.414;2024-01-10T10:22:19;45.80;;;23.95;;
39102;SDS011;24847;48.218;16.414;2024-01-10T10:27:22;38.53;;;21.80;;
39102;SDS011;24847;48.218;16.414;2024-01-10T10:32:25;40.58;;;21.30;;
39102;SDS011;24847;48.218;16.414;2024-01-10T10:37:28;41.38;;;21.70;;
39102;SDS011;24847;48.218;16.414;2024-01-10T10:42:30;37.72;;;20.75;;
39102;SDS011;24847;48.218;16.414;2024-01-10T10:47:35;36.40;;;20.52;;
39102;SDS011;24847;48.218;16.414;2024-01-10T10:52:39;36.15;;;20.35;;
39102;SDS011;24847;48.218;16.414;2024-01-10T10:57:47;32.28;;;17.98;;
39102;SDS011;24847;48.218;16.414;2024-01-10T11:02:51;29.30;;;16.30;;
39102;SDS011;24847;48.218;16.414;2024-01-10T11:07:54;24.80;;;14.80;;
39102;SDS011;24847;48.218;16.414;2024-01-10T11:13:03;25.92;;;14.15;;
39102;SDS011;24847;48.218;16.414;2024-01-10T11:18:32;27.50;;;15.70;;
39102;SDS011;24847;48.218;16.414;2024-01-10T11:23:56;25.00;;;14.30;;
39102;SDS011;24847;48.218;16.414;2024-01-10T11:29:01;28.80;;;15.70;;
39102;SDS011;24847;48.218;16.414;2024-01-10T11:34:04;25.23;;;14.38;;
39102;SDS011;24847;48.218;16.414;2024-01-10T11:39:07;24.65;;;14.93;;
39102;SDS011;24847;48.218;16.414;2024-01-10T11:49:54;27.27;;;17.15;;
39102;SDS011;24847;48.218;16.414;2024-01-10T11:54:58;27.45;;;17.50;;
39102;SDS011;24847;48.218;16.414;2024-01-10T12:00:00;28.85;;;17.17;;
39102;SDS011;24847;48.218;16.414;2024-01-10T12:05:07;27.42;;;16.33;;
39102;SDS011;24847;48.218;16.414;2024-01-10T12:10:10;28.55;;;17.38;;
39102;SDS011;24847;48.218;16.414;2024-01-10T12:15:13;25.17;;;16.13;;
39102;SDS011;24847;48.218;16.414;2024-01-10T12:20:21;26.13;;;17.38;;
39102;SDS011;24847;48.218;16.414;2024-01-10T12:25:23;27.85;;;17.17;;
39102;SDS011;24847;48.218;16.414;2024-01-10T12:30:26;25.67;;;16.70;;
39102;SDS011;24847;48.218;16.414;2024-01-10T12:35:30;23.98;;;15.52;;
39102;SDS011;24847;48.218;16.414;2024-01-10T12:40:33;26.70;;;17.50;;
39102;SDS011;24847;48.218;16.414;2024-01-10T12:45:35;27.98;;;16.98;;
39102;SDS011;24847;48.218;16.414;2024-01-10T12:50:39;27.23;;;16.52;;
39102;SDS011;24847;48.218;16.414;2024-01-10T12:55:41;26.60;;;15.55;;
39102;SDS011;24847;48.218;16.414;2024-01-10T13:00:44;23.70;;;15.35;;
39102;SDS011;24847;48.218;16.414;2024-01-10T13:05:47;21.83;;;14.15;;
39102;SDS011;24847;48.218;16.414;2024-01-10T13:10:49;23.60;;;15.52;;
39102;SDS011;24847;48.218;16.414;2024-01-10T13:15:52;24.75;;;15.07;;
39102;SDS011;24847;48.218;16.414;2024-01-10T13:20:55;25.10;;;14.73;;
39102;SDS011;24847;48.218;16.414;2024-01-10T13:25:58;23.15;;;15.20;;
39102;SDS011;24847;48.218;16.414;2024-01-10T13:31:02;26.25;;;16.25;;
39102;SDS011;24847;48.218;16.414;2024-01-10T13:36:06;22.38;;;14.40;;
39102;SDS011;24847;48.218;16.414;2024-01-10T13:41:09;25.05;;;15.32;;
39102;SDS011;24847;48.218;16.414;2024-01-10T13:46:11;23.25;;;15.55;;
39102;SDS011;24847;48.218;16.414;2024-01-10T13:51:15;25.23;;;15.43;;
39102;SDS011;24847;48.218;16.414;2024-01-10T13:56:20;25.60;;;16.75;;
39102;SDS011;24847;48.218;16.414;2024-01-10T14:01:24;24.00;;;15.82;;
39102;SDS011;24847;48.218;16.414;2024-01-10T14:06:28;21.63;;;14.55;;
39102;SDS011;24847;48.218;16.414;2024-01-10T14:11:30;20.40;;;13.68;;
39102;SDS011;24847;48.218;16.414;2024-01-10T14:16:34;24.27;;;14.45;;
39102;SDS011;24847;48.218;16.414;2024-01-10T14:21:38;24.60;;;15.93;;
39102;SDS011;24847;48.218;16.414;2024-01-10T14:26:41;26.88;;;16.98;;
39102;SDS011;24847;48.218;16.414;2024-01-10T14:31:44;30.30;;;16.63;;
39102;SDS011;24847;48.218;16.414;2024-01-10T14:36:47;29.70;;;19.50;;
39102;SDS011;24847;48.218;16.414;2024-01-10T14:41:50;34.05;;;20.30;;
39102;SDS011;24847;48.218;16.414;2024-01-10T14:46:52;32.58;;;20.95;;
39102;SDS011;24847;48.218;16.414;2024-01-10T14:51:56;33.90;;;20.98;;
39102;SDS011;24847;48.218;16.414;2024-01-10T14:56:58;34.15;;;20.85;;
39102;SDS011;24847;48.218;16.414;2024-01-10T15:02:00;33.53;;;21.67;;
39102;SDS011;24847;48.218;16.414;2024-01-10T15:07:04;30.73;;;20.90;;
39102;SDS011;24847;48.218;16.414;2024-01-10T15:12:06;37.97;;;22.05;;
39102;SDS011;24847;48.218;16.414;2024-01-10T15:17:09;31.30;;;19.63;;
39102;SDS011;24847;48.218;16.414;2024-01-10T15:22:13;33.92;;;20.67;;
39102;SDS011;24847;48.218;16.414;2024-01-10T15:27:15;31.52;;;20.58;;
39102;SDS011;24847;48.218;16.414;2024-01-10T15:32:18;31.05;;;19.23;;
39102;SDS011;24847;48.218;16.414;2024-01-10T15:37:22;32.13;;;19.35;;
39102;SDS011;24847;48.218;16.414;2024-01-10T15:42:24;27.40;;;18.38;;
39102;SDS011;24847;48.218;16.414;2024-01-10T15:47:26;28.27;;;18.15;;
39102;SDS011;24847;48.218;16.414;2024-01-10T15:52:31;28.83;;;18.88;;
39102;SDS011;24847;48.218;16.414;2024-01-10T15:57:33;28.05;;;18.83;;
39102;SDS011;24847;48.218;16.414;2024-01-10T16:02:35;29.63;;;18.55;;
39102;SDS011;24847;48.218;16.414;2024-01-10T16:07:39;29.98;;;17.98;;
39102;SDS011;24847;48.218;16.414;2024-01-10T16:12:42;25.83;;;16.75;;
39102;SDS011;24847;48.218;16.414;2024-01-10T16:17:44;25.90;;;16.45;;
39102;SDS011;24847;48.218;16.414;2024-01-10T16:22:48;25.92;;;15.85;;
39102;SDS011;24847;48.218;16.414;2024-01-10T16:27:50;40.95;;;24.20;;
39102;SDS011;24847;48.218;16.414;2024-01-10T16:32:52;30.80;;;18.25;;
39102;SDS011;24847;48.218;16.414;2024-01-10T16:37:55;26.50;;;17.30;;
39102;SDS011;24847;48.218;16.414;2024-01-10T16:42:57;25.98;;;16.95;;
39102;SDS011;24847;48.218;16.414;2024-01-10T16:48:00;30.48;;;17.77;;
39102;SDS011;24847;48.218;16.414;2024-01-10T16:53:04;29.98;;;17.60;;
39102;SDS011;24847;48.218;16.414;2024-01-10T16:58:06;26.15;;;16.77;;
39102;SDS011;24847;48.218;16.414;2024-01-10T17:03:09;28.90;;;17.65;;
39102;SDS011;24847;48.218;16.414;2024-01-10T17:08:12;26.58;;;17.42;;
39102;SDS011;24847;48.218;16.414;2024-01-10T17:13:14;28.23;;;18.15;;
39102;SDS011;24847;48.218;16.414;2024-01-10T17:18:16;28.35;;;16.95;;
39102;SDS011;24847;48.218;16.414;2024-01-10T17:23:22;26.23;;;17.05;;
39102;SDS011;24847;48.218;16.414;2024-01-10T17:28:25;28.40;;;17.60;;
39102;SDS011;24847;48.218;16.414;2024-01-10T17:33:29;30.52;;;19.10;;
39102;SDS011;24847;48.218;16.414;2024-01-10T17:38:45;31.05;;;18.02;;
39102;SDS011;24847;48.218;16.414;2024-01-10T17:43:47;29.02;;;18.10;;
39102;SDS011;24847;48.218;16.414;2024-01-10T17:48:49;29.08;;;17.88;;
39102;SDS011;24847;48.218;16.414;2024-01-10T17:53:53;26.80;;;17.08;;
39102;SDS011;24847;48.218;16.414;2024-01-10T17:58:56;26.85;;;17.20;;
39102;SDS011;24847;48.218;16.414;2024-01-10T18:03:58;29.20;;;16.85;;
39102;SDS011;24847;48.218;16.414;2024-01-10T18:09:01;26.67;;;17.33;;
39102;SDS011;24847;48.218;16.414;2024-01-10T18:14:04;27.35;;;17.23;;
39102;SDS011;24847;48.218;16.414;2024-01-10T18:19:06;26.50;;;16.48;;
39102;SDS011;24847;48.218;16.414;2024-01-10T18:24:10;26.95;;;17.05;;
39102;SDS011;24847;48.218;16.414;2024-01-10T18:29:12;23.92;;;16.00;;
39102;SDS011;24847;48.218;16.414;2024-01-10T18:34:14;27.92;;;17.55;;
39102;SDS011;24847;48.218;16.414;2024-01-10T18:39:18;29.65;;;17.83;;
39102;SDS011;24847;48.218;16.414;2024-01-10T18:44:22;29.02;;;17.13;;
39102;SDS011;24847;48.218;16.414;2024-01-10T18:49:26;27.25;;;17.55;;
39102;SDS011;24847;48.218;16.414;2024-01-10T18:54:29;26.60;;;17.50;;
39102;SDS011;24847;48.218;16.414;2024-01-10T18:59:31;26.40;;;16.92;;
39102;SDS011;24847;48.218;16.414;2024-01-10T19:04:33;26.98;;;16.17;;
39102;SDS011;24847;48.218;16.414;2024-01-10T19:09:37;27.33;;;17.33;;
39102;SDS011;24847;48.218;16.414;2024-01-10T19:14:39;25.42;;;16.15;;
39102;SDS011;24847;48.218;16.414;2024-01-10T19:19:42;28.42;;;17.33;;
39102;SDS011;24847;48.218;16.414;2024-01-10T19:24:45;28.85;;;17.75;;
39102;SDS011;24847;48.218;16.414;2024-01-10T19:29:48;28.95;;;17.30;;
39102;SDS011;24847;48.218;16.414;2024-01-10T19:34:50;28.55;;;18.42;;
39102;SDS011;24847;48.218;16.414;2024-01-10T19:39:54;26.30;;;17.13;;
39102;SDS011;24847;48.218;16.414;2024-01-10T19:44:56;25.77;;;16.55;;
39102;SDS011;24847;48.218;16.414;2024-01-10T19:49:59;27.42;;;16.67;;
39102;SDS011;24847;48.218;16.414;2024-01-10T19:55:02;28.60;;;17.20;;
39102;SDS011;24847;48.218;16.414;2024-01-10T20:00:06;26.88;;;16.65;;
39102;SDS011;24847;48.218;16.414;2024-01-10T20:05:09;28.08;;;17.50;;
39102;SDS011;24847;48.218;16.414;2024-01-10T20:10:13;29.92;;;19.23;;
39102;SDS011;24847;48.218;16.414;2024-01-10T20:15:15;32.30;;;19.95;;
39102;SDS011;24847;48.218;16.414;2024-01-10T20:20:17;28.92;;;18.58;;
39102;SDS011;24847;48.218;16.414;2024-01-10T20:25:22;30.42;;;18.70;;
39102;SDS011;24847;48.218;16.414;2024-01-10T20:30:25;31.25;;;19.98;;
39102;SDS011;24847;48.218;16.414;2024-01-10T20:35:28;31.52;;;19.90;;
39102;SDS011;24847;48.218;16.414;2024-01-10T20:40:33;29.40;;;17.73;;
39102;SDS011;24847;48.218;16.414;2024-01-10T20:45:35;34.28;;;20.10;;
39102;SDS011;24847;48.218;16.414;2024-01-10T20:50:37;33.17;;;20.70;;
39102;SDS011;24847;48.218;16.414;2024-01-10T20:55:41;30.40;;;18.73;;
39102;SDS011;24847;48.218;16.414;2024-01-10T21:00:46;26.90;;;17.33;;
39102;SDS011;24847;48.218;16.414;2024-01-10T21:05:49;28.15;;;17.27;;
39102;SDS011;24847;48.218;16.414;2024-01-10T21:10:53;30.23;;;18.73;;
39102;SDS011;24847;48.218;16.414;2024-01-10T21:15:56;31.92;;;19.63;;
39102;SDS011;24847;48.218;16.414;2024-01-10T21:20:59;30.52;;;18.33;;
39102;SDS011;24847;48.218;16.414;2024-01-10T21:26:04;27.45;;;17.63;;
39102;SDS011;24847;48.218;16.414;2024-01-10T21:31:07;34.22;;;20.15;;
39102;SDS011;24847;48.218;16.414;2024-01-10T21:36:10;28.58;;;17.92;;
39102;SDS011;24847;48.218;16.414;2024-01-10T21:41:13;26.77;;;17.25;;
39102;SDS011;24847;48.218;16.414;2024-01-10T21:46:16;27.52;;;16.90;;
39102;SDS011;24847;48.218;16.414;2024-01-10T21:51:18;24.67;;;16.02;;
39102;SDS011;24847;48.218;16.414;2024-01-10T21:56:22;25.50;;;16.63;;
39102;SDS011;24847;48.218;16.414;2024-01-10T22:01:24;22.95;;;15.60;;
39102;SDS011;24847;48.218;16.414;2024-01-10T22:06:27;23.00;;;15.20;;
39102;SDS011;24847;48.218;16.414;2024-01-10T22:11:31;24.90;;;16.00;;
39102;SDS011;24847;48.218;16.414;2024-01-10T22:16:33;26.27;;;15.65;;
39102;SDS011;24847;48.218;16.414;2024-01-10T22:21:35;24.88;;;15.40;;
39102;SDS011;24847;48.218;16.414;2024-01-10T22:26:39;26.95;;;15.75;;
39102;SDS011;24847;48.218;16.414;2024-01-10T22:31:41;24.73;;;15.68;;
39102;SDS011;24847;48.218;16.414;2024-01-10T22:36:43;25.25;;;16.05;;
39102;SDS011;24847;48.218;16.414;2024-01-10T22:41:47;26.27;;;15.45;;
39102;SDS011;24847;48.218;16.414;2024-01-10T22:46:49;25.33;;;15.38;;
39102;SDS011;24847;48.218;16.414;2024-01-10T22:51:52;24.38;;;14.95;;
39102;SDS011;24847;48.218;16.414;2024-01-10T22:56:55;25.35;;;14.52;;
39102;SDS011;24847;48.218;16.414;2024-01-10T23:01:58;22.92;;;14.77;;
39102;SDS011;24847;48.218;16.414;2024-01-10T23:07:00;25.77;;;15.70;;
39102;SDS011;24847;48.218;16.414;2024-01-10T23:12:04;26.88;;;16.30;;
39102;SDS011;24847;48.218;16.414;2024-01-10T23:17:08;25.88;;;16.55;;
39102;SDS011;24847;48.218;16.414;2024-01-10T23:22:10;27.02;;;15.65;;
39102;SDS011;24847;48.218;16.414;2024-01-10T23:27:14;23.40;;;15.23;;
39102;SDS011;24847;48.218;16.414;2024-01-10T23:32:16;26.00;;;15.80;;
39102;SDS011;24847;48.218;16.414;2024-01-10T23:37:19;25.77;;;16.00;;
39102;SDS011;24847;48.218;16.414;2024-01-10T23:42:23;25.73;;;16.75;;
39102;SDS011;24847;48.218;16.414;2024-01-10T23:47:25;29.27;;;17.10;;
39102;SDS011;24847;48.218;16.414;2024-01-10T23:52:27;27.30;;;15.73;;
39102;SDS011;24847;48.218;16.414;2024-01-10T23:57:31;23.27;;;15.13;;
